createdAt,value
2019-05-14T00:01:03.323Z,97546.41
2019-05-14T00:03:31.262Z,97542.20
2019-05-14T00:06:01.763Z,97541.63
2019-05-14T00:08:31.431Z,97540.22
2019-05-14T00:11:01.437Z,97534.36
2019-05-14T00:13:32.097Z,97533.73
2019-05-14T00:16:01.373Z,97534.97
2019-05-14T00:18:31.496Z,97535.98
2019-05-14T00:21:01.861Z,97530.86
2019-05-14T00:23:31.936Z,97523.74
2019-05-14T00:26:01.688Z,97526.08
2019-05-14T00:28:31.755Z,97523.86
2019-05-14T00:31:02.647Z,97520.94
2019-05-14T00:33:31.518Z,97519.05
2019-05-14T00:36:02.815Z,97513.89
2019-05-14T00:38:31.640Z,97509.09
2019-05-14T00:41:01.993Z,97510.84
2019-05-14T00:43:32.281Z,97514.45
2019-05-14T00:46:01.646Z,97510.84
2019-05-14T00:48:31.751Z,97517.92
2019-05-14T00:51:02.222Z,97508.41
2019-05-14T00:53:32.045Z,97513.31
2019-05-14T00:56:02.187Z,97514.41
2019-05-14T00:58:31.584Z,97511.66
2019-05-14T01:01:01.525Z,97514.20
2019-05-14T01:03:32.474Z,97509.17
2019-05-14T01:06:02.899Z,97503.49
2019-05-14T01:08:31.970Z,97506.65
2019-05-14T01:11:01.664Z,97505.23
2019-05-14T01:13:31.224Z,97504.98
2019-05-14T01:16:01.538Z,97507.16
2019-05-14T01:18:32.238Z,97496.02
2019-05-14T01:21:01.086Z,97493.87
2019-05-14T01:23:32.080Z,97487.63
2019-05-14T01:26:02.080Z,97485.98
2019-05-14T01:28:32.048Z,97484.66
2019-05-14T01:31:01.166Z,97488.02
2019-05-14T01:33:31.896Z,97483.47
2019-05-14T01:36:02.090Z,97483.36
2019-05-14T01:38:31.459Z,97482.64
2019-05-14T01:41:01.861Z,97482.75
2019-05-14T01:43:31.473Z,97481.55
2019-05-14T01:46:01.897Z,97482.64
2019-05-14T01:48:31.268Z,97477.38
2019-05-14T01:51:01.609Z,97475.95
2019-05-14T01:53:31.221Z,97483.62
2019-05-14T01:56:01.564Z,97478.46
2019-05-14T01:58:31.145Z,97476.43
2019-05-14T02:01:02.156Z,97472.82
2019-05-14T02:03:32.046Z,97465.41
2019-05-14T02:06:01.465Z,97473.42
2019-05-14T02:08:32.214Z,97466.61
2019-05-14T02:11:01.678Z,97465.05
2019-05-14T02:13:32.192Z,97469.14
2019-05-14T02:16:01.341Z,97460.87
2019-05-14T02:18:31.147Z,97454.40
2019-05-14T02:21:01.627Z,97455.72
2019-05-14T02:23:31.956Z,97452.59
2019-05-14T02:26:02.247Z,97455.59
2019-05-14T02:28:31.487Z,97448.42
2019-05-14T02:31:03.470Z,97440.52
2019-05-14T02:33:30.810Z,97443.76
2019-05-14T02:36:00.128Z,97440.30
2019-05-14T02:38:29.972Z,97439.09
2019-05-14T02:41:00.025Z,97435.86
2019-05-14T02:43:29.458Z,97436.46
2019-05-14T02:46:10.783Z,97438.75
2019-05-14T02:48:29.338Z,97429.53
2019-05-14T02:50:59.880Z,97429.27
2019-05-14T02:53:29.632Z,97423.19
2019-05-14T02:55:59.385Z,97425.22
2019-05-14T02:58:29.874Z,97429.05
2019-05-14T03:01:00.358Z,97428.56
2019-05-14T03:03:29.887Z,97434.20
2019-05-14T03:06:00.306Z,97434.42
2019-05-14T03:08:30.361Z,97428.45
2019-05-14T03:11:00.195Z,97428.34
2019-05-14T03:13:29.766Z,97425.47
2019-05-14T03:15:59.468Z,97423.55
2019-05-14T03:18:29.611Z,97418.40
2019-05-14T03:21:00.719Z,97417.57
2019-05-14T03:23:30.214Z,97420.91
2019-05-14T03:26:00.737Z,97416.97
2019-05-14T03:28:30.415Z,97421.14
2019-05-14T03:31:03.088Z,97414.81
2019-05-14T03:33:33.552Z,97412.30
2019-05-14T03:36:08.041Z,97415.76
2019-05-14T03:38:29.955Z,97418.28
2019-05-14T03:41:00.205Z,97413.97
2019-05-14T03:43:29.690Z,97414.23
2019-05-14T03:45:59.347Z,97408.70
2019-05-14T03:48:29.689Z,97409.91
2019-05-14T03:51:00.111Z,97410.88
2019-05-14T03:53:29.768Z,97416.73
2019-05-14T03:55:59.880Z,97412.30
2019-05-14T03:58:30.192Z,97416.95
2019-05-14T04:01:02.491Z,97412.41
2019-05-14T04:03:32.413Z,97411.58
2019-05-14T04:06:02.212Z,97416.00
2019-05-14T04:08:33.030Z,97415.63
2019-05-14T04:11:02.274Z,97416.60
2019-05-14T04:13:32.496Z,97411.80
2019-05-14T04:16:03.189Z,97406.80
2019-05-14T04:18:34.932Z,97409.42
2019-05-14T04:21:04.681Z,97413.11
2019-05-14T04:23:35.586Z,97418.84
2019-05-14T04:26:09.178Z,97411.09
2019-05-14T04:28:39.304Z,97415.97
2019-05-14T04:31:09.827Z,97413.23
2019-05-14T04:33:41.435Z,97418.49
2019-05-14T04:36:10.256Z,97418.12
2019-05-14T04:38:40.968Z,97420.41
2019-05-14T04:41:10.384Z,97408.92
2019-05-14T04:43:40.295Z,97412.27
2019-05-14T04:46:10.373Z,97419.69
2019-05-14T04:48:43.235Z,97412.06
2019-05-14T04:51:10.022Z,97412.29
2019-05-14T04:53:39.470Z,97413.12
2019-05-14T04:56:09.802Z,97410.27
2019-05-14T04:58:41.068Z,97412.64
2019-05-14T05:01:09.794Z,97408.97
2019-05-14T05:03:39.931Z,97406.34
2019-05-14T05:06:09.867Z,97405.73
2019-05-14T05:08:39.771Z,97399.61
2019-05-14T05:11:09.519Z,97402.95
2019-05-14T05:13:39.569Z,97398.67
2019-05-14T05:16:09.972Z,97401.91
2019-05-14T05:18:40.046Z,97398.41
2019-05-14T05:21:08.949Z,97393.85
2019-05-14T05:23:38.705Z,97401.74
2019-05-14T05:26:09.251Z,97399.70
2019-05-14T05:28:39.080Z,97399.47
2019-05-14T05:31:09.315Z,97398.27
2019-05-14T05:33:38.426Z,97390.81
2019-05-14T05:36:09.204Z,97395.02
2019-05-14T05:38:39.417Z,97392.48
2019-05-14T05:41:08.927Z,97392.48
2019-05-14T05:43:39.414Z,97385.02
2019-05-14T05:46:08.636Z,97387.05
2019-05-14T05:48:38.855Z,97386.44
2019-05-14T05:51:09.204Z,97389.05
2019-05-14T05:53:39.408Z,97392.53
2019-05-14T05:56:08.931Z,97394.05
2019-05-14T05:58:39.702Z,97397.71
2019-05-14T06:01:09.560Z,97398.89
2019-05-14T06:03:39.257Z,97394.42
2019-05-14T06:06:13.264Z,97398.69
2019-05-14T06:08:38.741Z,97394.65
2019-05-14T06:11:08.382Z,97389.22
2019-05-14T06:13:39.092Z,97388.53
2019-05-14T06:16:09.534Z,97387.48
2019-05-14T06:18:39.136Z,97388.97
2019-05-14T06:21:09.208Z,97383.02
2019-05-14T06:23:38.560Z,97372.70
2019-05-14T06:26:11.477Z,97372.70
2019-05-14T06:28:40.964Z,97375.34
2019-05-14T06:31:09.883Z,97379.27
2019-05-14T06:33:39.446Z,97373.08
2019-05-14T06:36:08.841Z,97368.12
2019-05-14T06:38:38.791Z,97371.04
2019-05-14T06:41:08.371Z,97364.52
2019-05-14T06:43:38.983Z,97363.56
2019-05-14T06:46:09.040Z,97362.39
2019-05-14T06:48:39.663Z,97356.92
2019-05-14T06:51:08.801Z,97356.11
2019-05-14T06:53:39.189Z,97353.12
2019-05-14T06:56:08.191Z,97356.89
2019-05-14T06:58:38.966Z,97357.66
2019-05-14T07:01:09.224Z,97353.50
2019-05-14T07:03:38.221Z,97354.27
2019-05-14T07:06:09.006Z,97350.00
2019-05-14T07:08:39.272Z,97348.41
2019-05-14T07:11:08.570Z,97344.43
2019-05-14T07:13:38.570Z,97346.80
2019-05-14T07:16:08.953Z,97349.43
2019-05-14T07:18:46.386Z,97343.53
2019-05-14T07:21:08.263Z,97343.42
2019-05-14T07:23:38.517Z,97334.39
2019-05-14T07:26:08.452Z,97330.59
2019-05-14T07:28:42.081Z,97329.91
2019-05-14T07:31:09.752Z,97330.14
2019-05-14T07:33:38.830Z,97330.55
2019-05-14T07:36:08.830Z,97328.63
2019-05-14T07:38:39.094Z,97331.71
2019-05-14T07:41:09.185Z,97322.59
2019-05-14T07:43:39.350Z,97319.75
2019-05-14T07:46:08.620Z,97320.27
2019-05-14T07:48:39.293Z,97322.45
2019-05-14T07:51:08.941Z,97318.48
2019-05-14T07:53:41.616Z,97316.16
2019-05-14T07:56:09.451Z,97308.36
2019-05-14T07:58:38.686Z,97304.84
2019-05-14T08:01:09.440Z,97304.02
2019-05-14T08:03:38.445Z,97302.92
2019-05-14T08:06:08.298Z,97295.59
2019-05-14T08:08:38.650Z,97292.55
2019-05-14T08:11:08.610Z,97291.69
2019-05-14T08:13:39.025Z,97289.11
2019-05-14T08:16:08.956Z,97277.07
2019-05-14T08:18:39.642Z,97277.67
2019-05-14T08:21:08.445Z,97274.48
2019-05-14T08:23:39.139Z,97277.77
2019-05-14T08:26:07.944Z,97275.80
2019-05-14T08:28:38.205Z,97281.29
2019-05-14T08:31:09.140Z,97278.36
2019-05-14T08:33:39.469Z,97272.06
2019-05-14T08:36:08.890Z,97274.02
2019-05-14T08:38:38.352Z,97264.61
2019-05-14T08:41:08.416Z,97268.80
2019-05-14T08:43:39.528Z,97269.95
2019-05-14T08:46:08.212Z,97267.66
2019-05-14T08:48:38.980Z,97266.33
2019-05-14T08:51:09.108Z,97265.30
2019-05-14T08:53:38.289Z,97261.64
2019-05-14T08:56:08.714Z,97265.07
2019-05-14T08:58:38.529Z,97264.72
2019-05-14T09:01:08.222Z,97264.53
2019-05-14T09:03:39.154Z,97254.63
2019-05-14T09:06:09.120Z,97256.98
2019-05-14T09:08:39.036Z,97249.08
2019-05-14T09:11:09.969Z,97258.46
2019-05-14T09:13:38.506Z,97251.95
2019-05-14T09:16:09.231Z,97254.73
2019-05-14T09:18:38.444Z,97245.44
2019-05-14T09:21:08.621Z,97248.84
2019-05-14T09:23:39.228Z,97243.48
2019-05-14T09:26:09.657Z,97241.86
2019-05-14T09:28:39.244Z,97237.47
2019-05-14T09:31:08.510Z,97235.82
2019-05-14T09:33:38.941Z,97236.45
2019-05-14T09:36:17.937Z,97236.71
2019-05-14T09:38:42.100Z,97239.98
2019-05-14T09:41:14.725Z,97244.38
2019-05-14T09:43:39.225Z,97251.08
2019-05-14T09:46:08.975Z,97251.63
2019-05-14T09:48:38.145Z,97249.55
2019-05-14T09:51:09.064Z,97247.83
2019-05-14T09:53:38.393Z,97258.39
2019-05-14T09:56:09.068Z,97256.70
2019-05-14T09:58:38.769Z,97256.56
2019-05-14T10:01:08.517Z,97261.76
2019-05-14T10:03:39.045Z,97264.44
2019-05-14T10:06:09.689Z,97260.50
2019-05-14T10:08:38.998Z,97261.58
2019-05-14T10:11:07.829Z,97267.63
2019-05-14T10:13:39.021Z,97272.55
2019-05-14T10:16:06.381Z,97273.77
2019-05-14T10:18:34.909Z,97273.38
2019-05-14T10:21:03.309Z,97260.86
2019-05-14T10:23:31.717Z,97258.50
2019-05-14T10:26:00.151Z,97257.34
2019-05-14T10:28:28.990Z,97251.88
2019-05-14T10:30:59.956Z,97253.12
2019-05-14T10:33:28.799Z,97246.26
2019-05-14T10:35:58.865Z,97242.22
2019-05-14T10:38:29.592Z,97242.16
2019-05-14T10:40:58.402Z,97235.92
2019-05-14T10:43:28.899Z,97233.87
2019-05-14T10:45:58.054Z,97229.96
2019-05-14T10:48:28.934Z,97234.16
2019-05-14T10:51:02.917Z,97218.20
2019-05-14T10:53:29.055Z,97210.13
2019-05-14T10:55:58.267Z,97212.48
2019-05-14T10:58:29.083Z,97218.46
2019-05-14T11:00:58.876Z,97219.44
2019-05-14T11:03:30.054Z,97217.42
2019-05-14T11:05:58.810Z,97222.34
2019-05-14T11:08:29.563Z,97213.28
2019-05-14T11:11:03.798Z,97222.62
2019-05-14T11:13:29.225Z,97252.29
2019-05-14T11:15:59.655Z,97246.44
2019-05-14T11:18:29.198Z,97226.92
2019-05-14T11:21:18.019Z,97214.80
2019-05-14T11:23:29.834Z,97217.20
2019-05-14T11:25:58.712Z,97205.66
2019-05-14T11:28:28.703Z,97201.25
2019-05-14T11:30:57.316Z,97204.30
2019-05-14T11:33:25.752Z,97204.40
2019-05-14T11:35:54.154Z,97209.59
2019-05-14T11:38:33.347Z,97204.50
2019-05-14T11:40:52.752Z,97196.12
2019-05-14T11:43:21.210Z,97194.37
2019-05-14T11:45:52.283Z,97188.45
2019-05-14T11:48:20.875Z,97195.07
2019-05-14T11:50:49.468Z,97195.02
2019-05-14T11:53:20.110Z,97197.66
2019-05-14T11:55:50.346Z,97192.16
2019-05-14T11:58:20.898Z,97196.55
2019-05-14T12:00:48.766Z,97185.10
2019-05-14T12:03:19.509Z,97185.10
2019-05-14T12:05:49.387Z,97182.13
2019-05-14T12:08:18.599Z,97179.89
2019-05-14T12:10:47.548Z,97172.53
2019-05-14T12:13:16.180Z,97165.09
2019-05-14T12:15:44.652Z,97169.59
2019-05-14T12:18:13.095Z,97169.72
2019-05-14T12:20:41.498Z,97162.20
2019-05-14T12:23:09.901Z,97167.48
2019-05-14T12:25:38.468Z,97168.13
2019-05-14T12:28:13.279Z,97169.72
2019-05-14T12:30:39.383Z,97163.34
2019-05-14T12:33:07.302Z,97169.13
2019-05-14T12:35:35.750Z,97170.63
2019-05-14T12:38:04.191Z,97158.09
2019-05-14T12:40:32.802Z,97154.91
2019-05-14T12:43:01.211Z,97147.05
2019-05-14T12:45:30.181Z,97137.25
2019-05-14T12:47:58.853Z,97133.78
2019-05-14T12:50:27.259Z,97119.47
2019-05-14T12:52:55.665Z,97116.55
2019-05-14T12:55:24.319Z,97105.97
2019-05-14T12:57:52.693Z,97103.38
2019-05-14T13:00:21.638Z,97097.09
2019-05-14T13:02:50.087Z,97092.95
2019-05-14T13:05:18.650Z,97087.48
2019-05-14T13:07:50.805Z,97083.98
2019-05-14T13:10:18.904Z,97082.77
2019-05-14T13:12:48.332Z,97078.72
2019-05-14T13:15:20.058Z,97079.52
2019-05-14T13:17:48.476Z,97071.59
2019-05-14T13:20:18.577Z,97070.95
2019-05-14T13:22:50.047Z,97067.44
2019-05-14T13:25:18.853Z,97064.58
2019-05-14T13:27:47.577Z,97063.55
2019-05-14T13:30:18.551Z,97061.77
2019-05-14T13:32:48.780Z,97080.20
2019-05-14T13:35:19.604Z,97078.03
2019-05-14T13:37:49.072Z,97078.94
2019-05-14T13:40:20.876Z,97074.34
2019-05-14T13:42:49.191Z,97072.87
2019-05-14T13:45:19.120Z,97076.03
2019-05-14T13:47:48.793Z,97068.70
2019-05-14T13:50:19.649Z,97063.04
2019-05-14T13:52:59.862Z,97062.38
2019-05-14T13:55:19.580Z,97058.19
2019-05-14T13:57:48.827Z,97057.34
2019-05-14T14:00:19.859Z,97061.65
2019-05-14T14:02:48.143Z,97061.55
2019-05-14T14:05:19.864Z,97056.09
2019-05-14T14:07:48.547Z,97059.91
2019-05-14T14:10:17.485Z,97058.74
2019-05-14T14:12:49.243Z,97047.27
2019-05-14T14:15:16.261Z,97044.27
2019-05-14T14:17:44.703Z,97040.19
2019-05-14T14:20:13.231Z,97042.69
2019-05-14T14:22:41.635Z,97043.70
2019-05-14T14:25:10.412Z,97048.06
2019-05-14T14:27:40.675Z,97058.41
2019-05-14T14:30:10.898Z,97080.67
2019-05-14T14:32:40.714Z,97084.16
2019-05-14T14:35:10.011Z,97084.94
2019-05-14T14:37:39.698Z,97063.34
2019-05-14T14:40:10.477Z,97050.05
2019-05-14T14:42:39.979Z,97048.52
2019-05-14T14:45:10.119Z,97045.87
2019-05-14T14:47:39.810Z,97042.53
2019-05-14T14:50:09.267Z,97031.03
2019-05-14T14:52:37.790Z,97026.08
2019-05-14T14:55:06.856Z,97027.92
2019-05-14T14:57:35.300Z,97018.17
2019-05-14T15:00:08.561Z,97017.88
2019-05-14T15:02:35.819Z,97012.91
2019-05-14T15:05:13.309Z,97019.70
2019-05-14T15:07:36.164Z,97023.16
2019-05-14T15:10:08.481Z,97027.06
2019-05-14T15:12:40.065Z,97035.31
2019-05-14T15:15:07.346Z,97031.26
2019-05-14T15:17:35.785Z,97026.72
2019-05-14T15:20:05.634Z,97021.13
2019-05-14T15:22:34.077Z,97020.32
2019-05-14T15:25:02.519Z,97018.17
2019-05-14T15:27:30.929Z,97022.06
2019-05-14T15:29:59.532Z,97018.20
2019-05-14T15:32:30.302Z,97022.09
2019-05-14T15:34:59.306Z,97020.68
2019-05-14T15:37:31.425Z,97033.56
2019-05-14T15:39:58.355Z,97042.76
2019-05-14T15:42:28.336Z,97036.30
2019-05-14T15:44:59.782Z,97033.63
2019-05-14T15:47:29.489Z,97025.98
2019-05-14T15:49:59.428Z,97019.19
2019-05-14T15:52:29.100Z,97022.29
2019-05-14T15:54:57.754Z,97024.42
2019-05-14T15:57:28.722Z,97008.17
2019-05-14T16:00:00.868Z,97005.31
2019-05-14T16:02:29.537Z,96999.15
2019-05-14T16:04:59.166Z,96993.48
2019-05-14T16:07:29.355Z,96994.13
2019-05-14T16:10:00.863Z,96996.94
2019-05-14T16:12:32.161Z,96993.78
2019-05-14T16:14:58.661Z,96990.64
2019-05-14T16:17:30.199Z,96989.94
2019-05-14T16:19:57.338Z,96991.88
2019-05-14T16:22:25.750Z,96984.07
2019-05-14T16:24:57.025Z,96978.74
2019-05-14T16:27:24.395Z,96985.67
2019-05-14T16:29:52.908Z,96973.16
2019-05-14T16:32:21.317Z,96984.33
2019-05-14T16:34:49.733Z,96983.09
2019-05-14T16:37:18.299Z,96995.43
2019-05-14T16:39:48.862Z,97006.84
2019-05-14T16:42:20.676Z,97011.08
2019-05-14T16:44:49.390Z,97026.72
2019-05-14T16:47:18.854Z,97045.67
2019-05-14T16:49:48.217Z,97059.51
2019-05-14T16:52:18.107Z,97048.03
2019-05-14T16:54:48.753Z,97041.47
2019-05-14T16:57:18.539Z,97032.72
2019-05-14T16:59:49.459Z,97029.11
2019-05-14T17:02:19.128Z,97030.15
2019-05-14T17:04:48.271Z,97021.10
2019-05-14T17:07:18.312Z,97021.48
2019-05-14T17:09:49.135Z,97016.97
2019-05-14T17:12:20.171Z,97015.21
2019-05-14T17:14:47.346Z,97019.32
2019-05-14T17:17:15.783Z,97018.69
2019-05-14T17:19:44.182Z,97019.31
2019-05-14T17:22:27.739Z,97012.38
2019-05-14T17:24:42.758Z,97015.45
2019-05-14T17:27:11.162Z,97013.95
2019-05-14T17:29:39.564Z,97013.53
2019-05-14T17:32:08.009Z,97009.73
2019-05-14T17:34:39.659Z,97011.10
2019-05-14T17:37:08.966Z,97017.15
2019-05-14T17:39:38.721Z,97019.31
2019-05-14T17:42:11.359Z,97028.23
2019-05-14T17:44:38.834Z,97030.26
2019-05-14T17:47:07.478Z,97029.63
2019-05-14T17:49:35.881Z,97026.09
2019-05-14T17:52:04.292Z,97023.51
2019-05-14T17:54:32.867Z,97024.34
2019-05-14T17:57:01.273Z,97020.22
2019-05-14T17:59:30.074Z,97021.25
2019-05-14T18:01:59.436Z,97012.29
2019-05-14T18:04:28.375Z,97013.33
2019-05-14T18:06:59.008Z,97010.73
2019-05-14T18:09:29.216Z,97016.01
2019-05-14T18:11:58.638Z,97012.55
2019-05-14T18:14:28.396Z,97009.55
2019-05-14T18:16:58.475Z,97009.84
2019-05-14T18:19:28.937Z,97002.06
2019-05-14T18:21:59.277Z,97001.00
2019-05-14T18:24:28.606Z,97007.76
2019-05-14T18:26:57.227Z,97004.59
2019-05-14T18:29:25.624Z,97006.41
2019-05-14T18:31:55.211Z,96989.26
2019-05-14T18:34:23.926Z,96992.47
2019-05-14T18:36:52.335Z,96986.05
2019-05-14T18:39:21.311Z,96976.76
2019-05-14T18:41:50.156Z,96978.84
2019-05-14T18:44:19.109Z,96972.84
2019-05-14T18:46:48.598Z,96974.81
2019-05-14T18:49:19.502Z,96980.94
2019-05-14T18:51:49.856Z,96986.14
2019-05-14T18:54:17.612Z,96994.16
2019-05-14T18:56:46.011Z,97004.44
2019-05-14T18:59:14.543Z,97022.63
2019-05-14T19:01:42.995Z,97045.11
2019-05-14T19:04:11.367Z,97058.16
2019-05-14T19:06:39.782Z,97071.12
2019-05-14T19:09:10.730Z,97052.97
2019-05-14T19:11:38.910Z,97040.95
2019-05-14T19:14:09.007Z,97030.37
2019-05-14T19:16:38.352Z,97014.64
2019-05-14T19:19:08.039Z,97014.09
2019-05-14T19:21:38.236Z,97017.55
2019-05-14T19:24:08.919Z,97026.78
2019-05-14T19:26:40.214Z,97026.23
2019-05-14T19:29:08.683Z,97025.84
2019-05-14T19:31:38.656Z,97023.16
2019-05-14T19:34:08.462Z,97024.19
2019-05-14T19:36:36.972Z,97026.13
2019-05-14T19:39:07.849Z,97034.03
2019-05-14T19:41:36.301Z,97037.98
2019-05-14T19:44:05.714Z,97034.09
2019-05-14T19:46:34.154Z,97031.17
2019-05-14T19:49:02.615Z,97022.63
2019-05-14T19:51:31.166Z,97028.56
2019-05-14T19:53:59.737Z,97033.05
2019-05-14T19:56:29.343Z,97033.55
2019-05-14T19:58:57.844Z,97032.97
2019-05-14T20:01:28.564Z,97031.62
2019-05-14T20:03:58.826Z,97017.96
2019-05-14T20:06:29.223Z,97023.97
2019-05-14T20:08:58.726Z,97016.40
2019-05-14T20:11:28.954Z,97017.97
2019-05-14T20:13:59.107Z,97015.16
2019-05-14T20:16:28.554Z,97006.91
2019-05-14T20:18:58.054Z,97007.14
2019-05-14T20:21:28.283Z,97009.37
2019-05-14T20:23:58.892Z,97011.38
2019-05-14T20:26:28.158Z,97006.08
2019-05-14T20:28:58.914Z,97009.58
2019-05-14T20:31:27.000Z,97002.88
2019-05-14T20:33:55.419Z,97004.55
2019-05-14T20:36:23.823Z,96997.35
2019-05-14T20:38:52.399Z,96996.24
2019-05-14T20:41:22.970Z,96997.69
2019-05-14T20:43:51.385Z,96991.64
2019-05-14T20:46:19.818Z,96994.77
2019-05-14T20:48:48.486Z,96996.20
2019-05-14T20:51:18.578Z,96991.56
2019-05-14T20:53:48.752Z,96996.50
2019-05-14T20:56:19.010Z,96991.64
2019-05-14T20:58:48.153Z,96994.68
2019-05-14T21:01:18.396Z,96988.67
2019-05-14T21:03:48.338Z,96990.90
2019-05-14T21:06:18.792Z,96989.71
2019-05-14T21:08:48.908Z,96988.52
2019-05-14T21:11:19.095Z,96986.62
2019-05-14T21:13:50.070Z,96983.45
2019-05-14T21:16:18.317Z,96984.07
2019-05-14T21:18:48.774Z,96985.23
2019-05-14T21:21:18.544Z,96990.49
2019-05-14T21:23:49.045Z,96998.34
2019-05-14T21:26:19.459Z,96995.80
2019-05-14T21:28:48.742Z,96995.55
2019-05-14T21:31:18.105Z,96993.33
2019-05-14T21:33:48.793Z,96986.08
2019-05-14T21:36:19.111Z,96981.11
2019-05-14T21:38:49.138Z,96972.97
2019-05-14T21:41:20.096Z,96979.05
2019-05-14T21:43:49.214Z,96983.29
2019-05-14T21:46:19.391Z,96979.50
2019-05-14T21:48:47.852Z,96981.42
2019-05-14T21:51:18.060Z,96972.67
2019-05-14T21:53:48.276Z,96970.66
2019-05-14T21:56:18.521Z,96962.77
2019-05-14T21:58:48.130Z,96958.58
2019-05-14T22:01:18.771Z,96961.42
2019-05-14T22:03:48.550Z,96959.77
2019-05-14T22:06:18.243Z,96953.56
2019-05-14T22:08:48.812Z,96955.03
2019-05-14T22:11:18.853Z,96960.05
2019-05-14T22:13:49.445Z,96952.90
2019-05-14T22:16:18.984Z,96957.98
2019-05-14T22:18:48.398Z,96954.56
2019-05-14T22:21:18.377Z,96947.63
2019-05-14T22:23:48.206Z,96944.95
2019-05-14T22:26:18.673Z,96947.59
2019-05-14T22:28:47.915Z,96944.01
2019-05-14T22:31:19.123Z,96944.95
2019-05-14T22:33:46.625Z,96945.33
2019-05-14T22:36:15.035Z,96941.09
2019-05-14T22:38:43.463Z,96939.45
2019-05-14T22:41:11.932Z,96937.56
2019-05-14T22:43:40.407Z,96937.22
2019-05-14T22:46:08.849Z,96934.59
2019-05-14T22:48:37.240Z,96937.25
2019-05-14T22:51:05.646Z,96939.55
2019-05-14T22:53:34.163Z,96938.27
2019-05-14T22:56:02.561Z,96935.55
2019-05-14T22:58:31.073Z,96940.69
2019-05-14T23:01:13.193Z,96943.38
2019-05-14T23:03:29.994Z,96939.70
2019-05-14T23:05:58.382Z,96936.05
2019-05-14T23:08:26.808Z,96935.15
2019-05-14T23:10:55.211Z,96933.13
2019-05-14T23:13:23.610Z,96933.98
2019-05-14T23:15:52.222Z,96935.64
2019-05-14T23:18:20.619Z,96932.59
2019-05-14T23:20:49.368Z,96937.08
2019-05-14T23:23:18.491Z,96934.77
2019-05-14T23:25:47.079Z,96934.56
2019-05-14T23:28:15.484Z,96929.25
2019-05-14T23:30:44.152Z,96933.28
2019-05-14T23:33:12.587Z,96936.98
2019-05-14T23:35:41.293Z,96932.05
2019-05-14T23:38:09.782Z,96932.20
2019-05-14T23:40:38.854Z,96937.47
2019-05-14T23:43:07.436Z,96936.61
2019-05-14T23:45:37.868Z,96933.36
2019-05-14T23:48:05.988Z,96927.84
2019-05-14T23:50:34.463Z,96928.20
2019-05-14T23:53:03.034Z,96922.78
2019-05-14T23:55:31.438Z,96917.75
2019-05-14T23:57:59.836Z,96910.42
